createdAt,value
2017-11-05T00:00:52.848Z,20.08
2017-11-05T00:01:56.200Z,21.40
2017-11-05T00:02:58.755Z,19.98
2017-11-05T00:04:01.329Z,19.52
2017-11-05T00:05:03.868Z,19.00
2017-11-05T00:06:06.519Z,20.12
2017-11-05T00:07:09.058Z,19.60
2017-11-05T00:08:12.369Z,19.90
2017-11-05T00:09:14.914Z,18.62
2017-11-05T00:10:18.281Z,19.73
2017-11-05T00:11:20.829Z,20.48
2017-11-05T00:12:23.367Z,20.15
2017-11-05T00:13:26.689Z,19.48
2017-11-05T00:14:29.231Z,20.08
2017-11-05T00:15:31.830Z,19.92
2017-11-05T00:16:35.159Z,20.90
2017-11-05T00:17:37.705Z,19.98
2017-11-05T00:18:41.019Z,20.33
2017-11-05T00:19:43.566Z,20.58
2017-11-05T00:20:46.148Z,19.58
2017-11-05T00:21:48.701Z,20.73
2017-11-05T00:22:51.383Z,19.25
2017-11-05T00:23:53.937Z,21.10
2017-11-05T00:24:56.515Z,19.67
2017-11-05T00:25:59.052Z,19.62
2017-11-05T00:27:02.356Z,21.15
2017-11-05T00:28:04.906Z,20.25
2017-11-05T00:29:08.209Z,19.75
2017-11-05T00:30:10.804Z,19.20
2017-11-05T00:31:13.344Z,19.65
2017-11-05T00:32:15.881Z,19.67
2017-11-05T00:33:19.185Z,19.90
2017-11-05T00:34:21.722Z,20.00
2017-11-05T00:35:24.298Z,19.25
2017-11-05T00:36:27.609Z,19.10
2017-11-05T00:37:30.150Z,19.87
2017-11-05T00:38:33.469Z,19.25
2017-11-05T00:39:36.653Z,19.15
2017-11-05T00:40:39.189Z,19.87
2017-11-05T00:41:42.545Z,19.62
2017-11-05T00:42:45.082Z,19.85
2017-11-05T00:43:47.632Z,18.98
2017-11-05T00:44:50.190Z,19.55
2017-11-05T00:45:52.728Z,20.58
2017-11-05T00:46:56.093Z,20.30
2017-11-05T00:47:58.653Z,18.17
2017-11-05T00:49:01.210Z,18.12
2017-11-05T00:50:03.788Z,20.20
2017-11-05T00:51:06.344Z,18.80
2017-11-05T00:52:08.942Z,20.45
2017-11-05T00:53:11.485Z,19.75
2017-11-05T00:54:14.026Z,20.62
2017-11-05T00:55:16.578Z,20.35
2017-11-05T00:56:19.129Z,20.62
2017-11-05T00:57:22.489Z,21.40
2017-11-05T00:58:25.043Z,19.02
2017-11-05T00:59:27.584Z,21.05
2017-11-05T01:00:30.907Z,20.12
2017-11-05T01:01:33.452Z,20.58
2017-11-05T01:02:36.037Z,20.70
2017-11-05T01:03:39.357Z,18.20
2017-11-05T01:04:41.910Z,20.60
2017-11-05T01:05:45.231Z,20.05
2017-11-05T01:06:47.777Z,19.80
2017-11-05T01:07:50.361Z,19.27
2017-11-05T01:08:52.914Z,21.50
2017-11-05T01:09:55.457Z,20.33
2017-11-05T01:10:58.774Z,20.23
2017-11-05T01:12:01.321Z,19.65
2017-11-05T01:13:03.952Z,19.23
2017-11-05T01:14:06.517Z,18.42
2017-11-05T01:15:09.073Z,20.17
2017-11-05T01:16:11.624Z,19.27
2017-11-05T01:17:14.251Z,19.40
2017-11-05T01:18:16.841Z,19.60
2017-11-05T01:19:19.385Z,19.52
2017-11-05T01:20:21.976Z,19.52
2017-11-05T01:21:24.517Z,20.33
2017-11-05T01:22:27.826Z,20.62
2017-11-05T01:23:30.751Z,18.92
2017-11-05T01:24:33.345Z,20.10
2017-11-05T01:25:35.895Z,20.02
2017-11-05T01:26:39.216Z,20.15
2017-11-05T01:27:41.765Z,19.52
2017-11-05T01:28:44.325Z,20.27
2017-11-05T01:29:46.941Z,21.15
2017-11-05T01:30:49.492Z,20.52
2017-11-05T01:31:52.039Z,21.23
2017-11-05T01:32:54.607Z,20.05
2017-11-05T01:33:57.165Z,21.10
2017-11-05T01:34:59.753Z,20.35
2017-11-05T01:36:02.311Z,20.20
2017-11-05T01:37:04.863Z,19.73
2017-11-05T01:38:07.422Z,20.23
2017-11-05T01:39:10.741Z,21.05
2017-11-05T01:40:13.324Z,20.62
2017-11-05T01:41:16.689Z,19.35
2017-11-05T01:42:19.235Z,19.52
2017-11-05T01:43:21.773Z,18.52
2017-11-05T01:44:24.323Z,19.00
2017-11-05T01:45:27.170Z,19.02
2017-11-05T01:46:29.748Z,19.27
2017-11-05T01:47:32.294Z,19.45
2017-11-05T01:48:34.841Z,19.85
2017-11-05T01:49:37.381Z,19.00
2017-11-05T01:50:39.921Z,20.27
2017-11-05T01:51:42.514Z,20.17
2017-11-05T01:52:45.063Z,19.20
2017-11-05T01:53:47.652Z,21.05
2017-11-05T01:54:50.953Z,20.62
2017-11-05T01:55:53.498Z,22.20
2017-11-05T01:56:56.845Z,21.10
2017-11-05T01:57:59.382Z,21.77
2017-11-05T01:59:01.981Z,21.35
2017-11-05T02:00:04.516Z,22.00
2017-11-05T02:01:07.086Z,23.10
2017-11-05T02:02:09.652Z,21.10
2017-11-05T02:03:12.192Z,21.90
2017-11-05T02:04:15.541Z,20.35
2017-11-05T02:05:18.073Z,20.02
2017-11-05T02:06:20.608Z,20.50
2017-11-05T02:07:23.957Z,21.15
2017-11-05T02:08:26.533Z,21.33
2017-11-05T02:09:29.090Z,20.42
2017-11-05T02:10:31.653Z,20.80
2017-11-05T02:11:34.215Z,20.30
2017-11-05T02:12:36.796Z,19.98
2017-11-05T02:13:39.370Z,20.60
2017-11-05T02:14:41.922Z,20.65
2017-11-05T02:15:44.454Z,19.33
2017-11-05T02:16:47.005Z,20.33
2017-11-05T02:17:49.591Z,20.42
2017-11-05T02:18:52.140Z,19.87
2017-11-05T02:19:54.678Z,19.98
2017-11-05T02:20:58.007Z,19.75
2017-11-05T02:22:00.553Z,19.00
2017-11-05T02:23:03.137Z,20.73
2017-11-05T02:24:05.680Z,20.45
2017-11-05T02:25:09.026Z,22.20
2017-11-05T02:26:11.569Z,21.77
2017-11-05T02:27:14.104Z,21.37
2017-11-05T02:28:16.648Z,20.45
2017-11-05T02:29:19.238Z,22.02
2017-11-05T02:30:21.785Z,22.85
2017-11-05T02:31:25.096Z,20.98
2017-11-05T02:32:27.647Z,20.33
2017-11-05T02:33:30.196Z,22.33
2017-11-05T02:34:32.796Z,22.15
2017-11-05T02:35:35.381Z,21.70
2017-11-05T02:36:37.928Z,22.05
2017-11-05T02:37:40.481Z,22.60
2017-11-05T02:38:43.797Z,21.30
2017-11-05T02:39:46.379Z,23.38
2017-11-05T02:40:48.931Z,21.08
2017-11-05T02:41:51.493Z,21.73
2017-11-05T02:42:54.045Z,22.20
2017-11-05T02:43:56.640Z,20.70
2017-11-05T02:44:59.162Z,21.95
2017-11-05T02:46:02.476Z,22.00
2017-11-05T02:47:05.006Z,22.05
2017-11-05T02:48:08.301Z,21.27
2017-11-05T02:49:11.591Z,22.13
2017-11-05T02:50:14.164Z,22.37
2017-11-05T02:51:16.726Z,20.98
2017-11-05T02:52:19.281Z,21.90
2017-11-05T02:53:21.806Z,22.05
2017-11-05T02:54:24.336Z,22.67
2017-11-05T02:55:26.867Z,22.35
2017-11-05T02:56:30.149Z,21.77
2017-11-05T02:57:32.702Z,22.70
2017-11-05T02:58:35.238Z,22.52
2017-11-05T02:59:37.761Z,21.55
2017-11-05T03:00:41.053Z,22.25
2017-11-05T03:01:43.586Z,21.52
2017-11-05T03:02:46.144Z,21.55
2017-11-05T03:03:48.684Z,21.10
2017-11-05T03:04:51.227Z,23.10
2017-11-05T03:05:53.759Z,21.90
2017-11-05T03:06:56.276Z,22.45
2017-11-05T03:07:58.836Z,22.50
2017-11-05T03:09:01.358Z,25.20
2017-11-05T03:10:03.873Z,24.33
2017-11-05T03:11:06.402Z,23.48
2017-11-05T03:12:09.738Z,23.48
2017-11-05T03:13:12.295Z,22.58
2017-11-05T03:14:14.833Z,24.23
2017-11-05T03:15:17.366Z,21.73
2017-11-05T03:16:20.657Z,24.90
2017-11-05T03:17:23.181Z,22.42
2017-11-05T03:18:25.753Z,22.45
2017-11-05T03:19:28.273Z,22.00
2017-11-05T03:20:30.815Z,22.50
2017-11-05T03:21:33.348Z,24.50
2017-11-05T03:22:35.874Z,24.02
2017-11-05T03:23:39.277Z,24.10
2017-11-05T03:24:41.800Z,24.00
2017-11-05T03:25:45.106Z,24.85
2017-11-05T03:26:48.434Z,24.45
2017-11-05T03:27:50.965Z,24.70
2017-11-05T03:28:53.498Z,22.92
2017-11-05T03:29:56.029Z,24.10
2017-11-05T03:30:58.559Z,23.35
2017-11-05T03:32:01.138Z,23.40
2017-11-05T03:33:03.666Z,23.20
2017-11-05T03:34:06.190Z,24.58
2017-11-05T03:35:08.719Z,25.90
2017-11-05T03:36:12.010Z,24.77
2017-11-05T03:37:14.591Z,23.60
2017-11-05T03:38:17.197Z,24.90
2017-11-05T03:39:19.882Z,26.27
2017-11-05T03:40:22.411Z,24.20
2017-11-05T03:41:24.942Z,25.40
2017-11-05T03:42:27.501Z,24.27
2017-11-05T03:43:30.794Z,24.50
2017-11-05T03:44:33.361Z,24.48
2017-11-05T03:45:35.930Z,25.30
2017-11-05T03:46:38.457Z,24.87
2017-11-05T03:47:40.989Z,25.65
2017-11-05T03:48:43.519Z,26.08
2017-11-05T03:49:46.081Z,24.63
2017-11-05T03:50:49.405Z,24.52
2017-11-05T03:51:51.925Z,24.98
2017-11-05T03:52:55.221Z,24.73
2017-11-05T03:53:58.550Z,25.40
2017-11-05T03:55:01.071Z,25.10
2017-11-05T03:56:04.376Z,26.55
2017-11-05T03:57:06.903Z,25.83
2017-11-05T03:58:10.189Z,24.15
2017-11-05T03:59:13.518Z,24.37
2017-11-05T04:00:16.047Z,24.12
2017-11-05T04:01:19.346Z,25.90
2017-11-05T04:02:21.873Z,25.50
2017-11-05T04:03:24.404Z,26.23
2017-11-05T04:04:26.962Z,27.45
2017-11-05T04:05:29.494Z,26.50
2017-11-05T04:06:32.822Z,25.73
2017-11-05T04:07:35.365Z,25.98
2017-11-05T04:08:37.893Z,27.77
2017-11-05T04:09:40.423Z,25.75
2017-11-05T04:10:42.941Z,26.55
2017-11-05T04:11:46.262Z,27.37
2017-11-05T04:12:48.799Z,25.80
2017-11-05T04:13:52.093Z,26.40
2017-11-05T04:14:54.622Z,25.92
2017-11-05T04:15:57.182Z,26.05
2017-11-05T04:16:59.749Z,25.50
2017-11-05T04:18:02.615Z,25.60
2017-11-05T04:19:05.147Z,25.02
2017-11-05T04:20:07.670Z,24.12
2017-11-05T04:21:10.185Z,23.83
2017-11-05T04:22:12.735Z,24.33
2017-11-05T04:23:15.270Z,26.02
2017-11-05T04:24:18.598Z,24.55
2017-11-05T04:25:21.145Z,26.45
2017-11-05T04:26:23.841Z,26.83
2017-11-05T04:27:26.367Z,25.02
2017-11-05T04:28:29.702Z,25.70
2017-11-05T04:29:32.241Z,25.33
2017-11-05T04:30:34.771Z,26.95
2017-11-05T04:31:38.078Z,25.75
2017-11-05T04:32:40.603Z,25.73
2017-11-05T04:33:43.162Z,27.30
2017-11-05T04:34:45.685Z,25.35
2017-11-05T04:35:48.240Z,25.00
2017-11-05T04:36:50.806Z,26.25
2017-11-05T04:37:53.334Z,26.90
2017-11-05T04:38:55.854Z,25.88
2017-11-05T04:39:58.369Z,26.27
2017-11-05T04:41:00.925Z,28.02
2017-11-05T04:42:03.460Z,25.42
2017-11-05T04:43:05.995Z,26.50
2017-11-05T04:44:09.291Z,26.40
2017-11-05T04:45:11.813Z,26.58
2017-11-05T04:46:14.395Z,28.77
2017-11-05T04:47:16.950Z,27.15
2017-11-05T04:48:19.678Z,28.52
2017-11-05T04:49:22.199Z,28.23
2017-11-05T04:50:25.525Z,28.35
2017-11-05T04:51:28.082Z,28.83
2017-11-05T04:52:30.601Z,28.50
2017-11-05T04:53:33.158Z,28.05
2017-11-05T04:54:35.679Z,29.00
2017-11-05T04:55:38.209Z,30.12
2017-11-05T04:56:40.781Z,29.92
2017-11-05T04:57:43.310Z,31.10
2017-11-05T04:58:45.829Z,30.37
2017-11-05T04:59:49.122Z,30.40
2017-11-05T05:00:51.647Z,29.00
2017-11-05T05:01:54.221Z,29.00
2017-11-05T05:02:56.744Z,30.00
2017-11-05T05:03:59.271Z,30.85
2017-11-05T05:05:01.795Z,31.25
2017-11-05T05:06:04.323Z,32.60
2017-11-05T05:07:06.908Z,31.42
2017-11-05T05:08:09.434Z,29.40
2017-11-05T05:09:12.734Z,30.98
2017-11-05T05:10:15.437Z,32.13
2017-11-05T05:11:17.979Z,31.05
2017-11-05T05:12:20.582Z,31.08
2017-11-05T05:13:23.097Z,31.10
2017-11-05T05:14:26.380Z,31.48
2017-11-05T05:15:29.671Z,30.62
2017-11-05T05:16:32.234Z,31.48
2017-11-05T05:17:34.771Z,31.08
2017-11-05T05:18:37.301Z,31.40
2017-11-05T05:19:39.835Z,33.30
2017-11-05T05:20:42.362Z,31.40
2017-11-05T05:21:44.923Z,29.60
2017-11-05T05:22:47.438Z,31.37
2017-11-05T05:23:49.995Z,30.37
2017-11-05T05:24:52.529Z,31.40
2017-11-05T05:25:55.055Z,30.42
2017-11-05T05:26:57.578Z,31.85
2017-11-05T05:28:00.922Z,32.05
2017-11-05T05:29:03.496Z,30.90
2017-11-05T05:30:06.024Z,32.42
2017-11-05T05:31:08.546Z,31.20
2017-11-05T05:32:11.077Z,30.05
2017-11-05T05:33:13.659Z,31.17
2017-11-05T05:34:16.196Z,31.20
2017-11-05T05:35:18.723Z,31.20
2017-11-05T05:36:22.021Z,32.83
2017-11-05T05:37:24.550Z,30.48
2017-11-05T05:38:27.110Z,30.33
2017-11-05T05:39:29.641Z,30.95
2017-11-05T05:40:32.210Z,31.90
2017-11-05T05:41:34.751Z,31.55
2017-11-05T05:42:37.279Z,31.27
2017-11-05T05:43:39.801Z,30.62
2017-11-05T05:44:42.317Z,29.65
2017-11-05T05:45:44.870Z,31.77
2017-11-05T05:46:47.392Z,30.80
2017-11-05T05:47:49.942Z,31.95
2017-11-05T05:48:53.229Z,29.63
2017-11-05T05:49:56.526Z,31.50
2017-11-05T05:50:59.082Z,29.92
2017-11-05T05:52:01.617Z,30.60
2017-11-05T05:53:04.152Z,30.50
2017-11-05T05:54:07.433Z,29.27
2017-11-05T05:55:10.016Z,29.60
2017-11-05T05:56:12.529Z,28.92
2017-11-05T05:57:15.870Z,28.75
2017-11-05T05:58:18.389Z,29.10
2017-11-05T05:59:20.926Z,29.80
2017-11-05T06:00:24.226Z,28.00
2017-11-05T06:01:27.595Z,27.37
2017-11-05T06:02:30.173Z,27.73
2017-11-05T06:03:33.468Z,29.75
2017-11-05T06:04:35.992Z,30.05
2017-11-05T06:05:38.522Z,28.12
2017-11-05T06:06:41.086Z,29.27
2017-11-05T06:07:43.663Z,29.40
2017-11-05T06:08:46.191Z,29.83
2017-11-05T06:09:49.483Z,30.08
2017-11-05T06:10:52.004Z,28.17
2017-11-05T06:11:54.541Z,30.62
2017-11-05T06:12:57.109Z,28.70
2017-11-05T06:13:59.634Z,33.05
2017-11-05T06:15:02.925Z,31.00
2017-11-05T06:16:06.231Z,30.50
2017-11-05T06:17:08.749Z,32.85
2017-11-05T06:18:11.306Z,30.52
2017-11-05T06:19:13.827Z,31.58
2017-11-05T06:20:16.397Z,30.50
2017-11-05T06:21:18.998Z,29.50
2017-11-05T06:22:21.548Z,28.48
2017-11-05T06:23:24.073Z,28.38
2017-11-05T06:24:27.375Z,26.17
2017-11-05T06:25:29.901Z,28.40
2017-11-05T06:26:32.441Z,28.02
2017-11-05T06:27:35.766Z,26.50
2017-11-05T06:28:39.067Z,26.90
2017-11-05T06:29:41.596Z,25.25
2017-11-05T06:30:45.628Z,26.27
2017-11-05T06:31:48.948Z,26.95
2017-11-05T06:32:51.514Z,27.02
2017-11-05T06:33:54.074Z,26.35
2017-11-05T06:34:56.625Z,27.30
2017-11-05T06:35:59.158Z,26.35
2017-11-05T06:37:02.451Z,25.75
2017-11-05T06:38:05.773Z,27.10
2017-11-05T06:39:08.290Z,26.02
2017-11-05T06:40:10.854Z,26.52
2017-11-05T06:41:13.386Z,25.67
2017-11-05T06:42:15.905Z,25.75
2017-11-05T06:43:18.478Z,26.25
2017-11-05T06:44:21.018Z,27.02
2017-11-05T06:45:23.581Z,27.08
2017-11-05T06:46:26.149Z,27.65
2017-11-05T06:47:28.673Z,27.00
2017-11-05T06:48:31.249Z,27.67
2017-11-05T06:49:33.766Z,26.83
2017-11-05T06:50:37.073Z,26.45
2017-11-05T06:51:39.665Z,26.62
2017-11-05T06:52:42.196Z,28.62
2017-11-05T06:53:44.772Z,27.73
2017-11-05T06:54:47.293Z,28.05
2017-11-05T06:55:49.858Z,27.15
2017-11-05T06:56:52.387Z,26.00
2017-11-05T06:57:54.909Z,25.90
2017-11-05T06:58:58.245Z,26.00
2017-11-05T07:00:00.767Z,26.45
2017-11-05T07:01:04.058Z,27.30
2017-11-05T07:02:06.638Z,25.60
2017-11-05T07:03:09.158Z,24.67
2017-11-05T07:04:11.708Z,25.20
2017-11-05T07:05:14.224Z,25.33
2017-11-05T07:06:16.759Z,26.33
2017-11-05T07:07:19.327Z,26.48
2017-11-05T07:08:22.025Z,25.62
2017-11-05T07:09:24.549Z,25.65
2017-11-05T07:10:27.086Z,25.25
2017-11-05T07:11:29.618Z,26.58
2017-11-05T07:12:32.936Z,25.67
2017-11-05T07:13:35.480Z,26.85
2017-11-05T07:14:38.031Z,25.30
2017-11-05T07:15:41.340Z,26.67
2017-11-05T07:16:43.887Z,27.75
2017-11-05T07:17:46.471Z,26.83
2017-11-05T07:18:49.002Z,28.35
2017-11-05T07:19:52.305Z,27.05
2017-11-05T07:20:54.831Z,26.87
2017-11-05T07:21:57.358Z,26.37
2017-11-05T07:22:59.926Z,28.23
2017-11-05T07:24:02.471Z,27.70
2017-11-05T07:25:05.002Z,28.60
2017-11-05T07:26:07.530Z,27.13
2017-11-05T07:27:10.071Z,27.00
2017-11-05T07:28:12.629Z,26.45
2017-11-05T07:29:15.913Z,26.83
2017-11-05T07:30:18.443Z,27.25
2017-11-05T07:31:21.007Z,25.48
2017-11-05T07:32:23.529Z,28.50
2017-11-05T07:33:26.051Z,26.08
2017-11-05T07:34:28.579Z,26.45
2017-11-05T07:35:31.892Z,26.55
2017-11-05T07:36:35.246Z,29.02
2017-11-05T07:37:37.770Z,27.80
2017-11-05T07:38:41.058Z,26.90
2017-11-05T07:39:44.347Z,27.00
2017-11-05T07:40:46.866Z,27.25
2017-11-05T07:41:49.436Z,25.75
2017-11-05T07:42:51.971Z,26.73
2017-11-05T07:43:54.497Z,28.17
2017-11-05T07:44:57.782Z,26.40
2017-11-05T07:46:01.119Z,26.00
2017-11-05T07:47:03.656Z,27.55
2017-11-05T07:48:06.192Z,26.17
2017-11-05T07:49:09.495Z,26.52
2017-11-05T07:50:12.790Z,27.87
2017-11-05T07:51:15.409Z,27.60
2017-11-05T07:52:17.975Z,28.67
2017-11-05T07:53:20.493Z,27.95
2017-11-05T07:54:23.095Z,26.75
2017-11-05T07:55:25.618Z,28.73
2017-11-05T07:56:28.182Z,27.33
2017-11-05T07:57:30.758Z,28.60
2017-11-05T07:58:33.286Z,27.85
2017-11-05T07:59:35.813Z,28.40
2017-11-05T08:00:38.345Z,27.65
2017-11-05T08:01:40.869Z,28.23
2017-11-05T08:02:43.447Z,28.10
2017-11-05T08:03:46.014Z,30.40
2017-11-05T08:04:48.533Z,28.92
2017-11-05T08:05:51.058Z,33.10
2017-11-05T08:06:54.341Z,31.02
2017-11-05T08:07:57.655Z,29.20
2017-11-05T08:09:00.245Z,28.55
2017-11-05T08:10:02.765Z,28.05
2017-11-05T08:11:06.060Z,27.65
2017-11-05T08:12:09.355Z,27.85
2017-11-05T08:13:11.885Z,29.55
2017-11-05T08:14:14.445Z,28.67
2017-11-05T08:15:17.003Z,26.62
2017-11-05T08:16:19.521Z,27.80
2017-11-05T08:17:25.058Z,27.37
2017-11-05T08:18:27.603Z,26.33
2017-11-05T08:19:30.941Z,25.55
2017-11-05T08:20:33.465Z,26.23
2017-11-05T08:21:36.020Z,25.62
2017-11-05T08:22:39.712Z,26.35
2017-11-05T08:23:43.016Z,27.65
2017-11-05T08:24:45.576Z,25.88
2017-11-05T08:25:48.109Z,26.87
2017-11-05T08:26:50.642Z,26.02
2017-11-05T08:27:53.183Z,25.88
2017-11-05T08:28:55.710Z,25.42
2017-11-05T08:29:58.266Z,24.98
2017-11-05T08:31:00.798Z,25.33
2017-11-05T08:32:03.322Z,26.35
2017-11-05T08:33:06.618Z,26.50
2017-11-05T08:34:09.148Z,27.42
2017-11-05T08:35:11.728Z,28.17
2017-11-05T08:36:15.017Z,27.00
2017-11-05T08:37:18.347Z,26.37
2017-11-05T08:38:20.878Z,24.92
2017-11-05T08:39:24.174Z,23.00
2017-11-05T08:40:27.191Z,22.80
2017-11-05T08:41:29.723Z,23.55
2017-11-05T08:42:32.260Z,21.15
2017-11-05T08:43:35.713Z,20.30
2017-11-05T08:44:38.236Z,21.67
2017-11-05T08:45:40.826Z,14.73
2017-11-05T08:46:43.350Z,16.02
2017-11-05T08:47:46.642Z,17.52
2017-11-05T08:48:49.927Z,17.42
2017-11-05T08:49:52.462Z,19.37
2017-11-05T08:50:55.025Z,18.85
2017-11-05T08:51:57.545Z,22.60
2017-11-05T08:53:00.065Z,27.20
2017-11-05T08:54:02.597Z,24.77
2017-11-05T08:55:05.125Z,28.30
2017-11-05T08:56:07.695Z,26.33
2017-11-05T08:57:10.221Z,25.30
2017-11-05T08:58:12.760Z,29.08
2017-11-05T08:59:15.281Z,26.60
2017-11-05T09:00:18.580Z,28.12
2017-11-05T09:01:21.161Z,22.15
2017-11-05T09:02:23.694Z,20.95
2017-11-05T09:03:27.017Z,25.73
2017-11-05T09:04:29.550Z,60.58
2017-11-05T09:05:32.853Z,35.55
2017-11-05T09:06:35.422Z,34.92
2017-11-05T09:07:37.949Z,52.45
2017-11-05T09:08:40.474Z,25.88
2017-11-05T09:09:42.994Z,30.83
2017-11-05T09:10:46.281Z,63.92
2017-11-05T09:11:49.601Z,78.70
2017-11-05T09:12:52.130Z,75.72
2017-11-05T09:13:54.689Z,38.83
2017-11-05T09:14:57.998Z,30.80
2017-11-05T09:16:00.525Z,29.83
2017-11-05T09:17:03.049Z,31.20
2017-11-05T09:18:05.581Z,66.45
2017-11-05T09:19:08.926Z,23.80
2017-11-05T09:20:11.452Z,53.30
2017-11-05T09:21:13.985Z,43.40
2017-11-05T09:22:17.279Z,44.88
2017-11-05T09:23:20.565Z,43.58
2017-11-05T09:24:23.880Z,30.75
2017-11-05T09:25:26.405Z,35.60
2017-11-05T09:26:29.684Z,39.53
2017-11-05T09:27:32.969Z,40.30
2017-11-05T09:28:36.258Z,44.78
2017-11-05T09:29:39.596Z,26.37
2017-11-05T09:30:42.123Z,51.25
2017-11-05T09:31:44.636Z,20.40
2017-11-05T09:32:47.153Z,18.45
2017-11-05T09:33:49.678Z,35.90
2017-11-05T09:34:52.237Z,40.63
2017-11-05T09:35:54.765Z,66.30
2017-11-05T09:36:57.294Z,54.65
2017-11-05T09:38:00.578Z,56.83
2017-11-05T09:39:03.924Z,47.70
2017-11-05T09:40:06.450Z,29.17
2017-11-05T09:41:08.974Z,45.03
2017-11-05T09:42:11.508Z,44.35
2017-11-05T09:43:14.026Z,25.40
2017-11-05T09:44:17.351Z,29.90
2017-11-05T09:45:19.902Z,27.05
2017-11-05T09:46:22.427Z,25.00
2017-11-05T09:47:24.949Z,30.23
2017-11-05T09:48:27.472Z,18.87
2017-11-05T09:49:30.042Z,26.48
2017-11-05T09:50:33.328Z,22.70
2017-11-05T09:51:36.642Z,16.55
2017-11-05T09:52:39.207Z,18.23
2017-11-05T09:53:41.739Z,18.15
2017-11-05T09:54:44.261Z,24.08
2017-11-05T09:55:46.806Z,21.42
2017-11-05T09:56:49.337Z,15.00
2017-11-05T09:57:51.902Z,15.93
2017-11-05T09:58:54.466Z,16.92
2017-11-05T09:59:56.993Z,20.40
2017-11-05T10:00:59.536Z,21.15
2017-11-05T10:02:02.066Z,14.90
2017-11-05T10:03:04.601Z,12.27
2017-11-05T10:04:07.958Z,14.13
2017-11-05T10:05:10.489Z,20.05
2017-11-05T10:06:13.783Z,36.72
2017-11-05T10:07:17.087Z,23.77
2017-11-05T10:08:19.614Z,22.98
2017-11-05T10:09:22.175Z,12.88
2017-11-05T10:10:24.694Z,11.52
2017-11-05T10:11:27.213Z,11.82
2017-11-05T10:12:30.712Z,11.35
2017-11-05T10:13:34.009Z,10.55
2017-11-05T10:14:36.611Z,10.90
2017-11-05T10:15:39.152Z,13.80
2017-11-05T10:16:41.679Z,10.43
2017-11-05T10:17:44.199Z,9.05
2017-11-05T10:18:46.726Z,9.13
2017-11-05T10:19:50.057Z,9.40
2017-11-05T10:20:52.588Z,8.43
2017-11-05T10:21:55.121Z,11.15
2017-11-05T10:22:57.645Z,13.85
2017-11-05T10:24:00.179Z,14.07
2017-11-05T10:25:03.511Z,16.90
2017-11-05T10:26:06.029Z,12.93
2017-11-05T10:27:09.367Z,18.60
2017-11-05T10:28:11.897Z,13.90
2017-11-05T10:29:14.414Z,10.15
2017-11-05T10:30:16.937Z,16.42
2017-11-05T10:31:19.466Z,17.55
2017-11-05T10:32:22.038Z,14.00
2017-11-05T10:33:25.332Z,24.45
2017-11-05T10:34:28.638Z,10.70
2017-11-05T10:35:31.210Z,11.52
2017-11-05T10:36:33.737Z,15.65
2017-11-05T10:37:37.136Z,9.18
2017-11-05T10:38:39.677Z,14.30
2017-11-05T10:39:42.212Z,13.60
2017-11-05T10:40:44.743Z,15.43
2017-11-05T10:41:47.284Z,12.00
2017-11-05T10:42:50.622Z,12.90
2017-11-05T10:43:53.150Z,10.77
2017-11-05T10:44:56.438Z,9.95
2017-11-05T10:45:58.972Z,8.88
2017-11-05T10:47:01.521Z,12.37
2017-11-05T10:48:04.678Z,11.27
2017-11-05T10:49:07.206Z,9.45
2017-11-05T10:50:10.528Z,7.15
2017-11-05T10:51:13.057Z,8.40
2017-11-05T10:52:15.641Z,6.70
2017-11-05T10:53:18.194Z,6.10
2017-11-05T10:54:21.492Z,6.87
2017-11-05T10:55:24.029Z,10.00
2017-11-05T10:56:26.553Z,8.40
2017-11-05T10:57:29.094Z,14.05
2017-11-05T10:58:31.691Z,13.80
2017-11-05T10:59:34.223Z,9.07
2017-11-05T11:00:36.819Z,11.15
2017-11-05T11:01:39.346Z,14.75
2017-11-05T11:02:42.637Z,7.95
2017-11-05T11:03:45.222Z,8.25
2017-11-05T11:04:47.747Z,7.82
2017-11-05T11:05:51.034Z,7.82
2017-11-05T11:06:54.322Z,9.68
2017-11-05T11:07:57.647Z,7.37
2017-11-05T11:09:00.182Z,5.12
2017-11-05T11:10:03.465Z,6.95
2017-11-05T11:11:05.992Z,10.00
2017-11-05T11:12:08.557Z,13.07
2017-11-05T11:13:11.073Z,4.60
2017-11-05T11:14:13.596Z,2.00
2017-11-05T11:15:16.115Z,1.17
2017-11-05T11:16:18.636Z,1.60
2017-11-05T11:17:21.961Z,1.33
2017-11-05T11:18:24.483Z,1.27
2017-11-05T11:19:27.011Z,1.15
2017-11-05T11:20:29.529Z,1.15
2017-11-05T11:21:32.838Z,1.20
2017-11-05T11:22:35.394Z,1.20
2017-11-05T11:23:37.921Z,1.30
2017-11-05T11:24:40.439Z,1.20
2017-11-05T11:25:42.957Z,1.40
2017-11-05T11:26:45.509Z,1.40
2017-11-05T11:27:48.058Z,1.85
2017-11-05T11:28:50.574Z,1.25
2017-11-05T11:29:53.915Z,1.30
2017-11-05T11:30:56.438Z,1.30
2017-11-05T11:31:58.990Z,1.62
2017-11-05T11:33:02.311Z,1.52
2017-11-05T11:34:04.867Z,1.60
2017-11-05T11:35:07.387Z,1.35
2017-11-05T11:36:09.936Z,1.30
2017-11-05T11:37:12.456Z,1.10
2017-11-05T11:38:14.980Z,3.92
2017-11-05T11:39:17.519Z,3.00
2017-11-05T11:40:20.073Z,4.85
2017-11-05T11:41:22.598Z,2.97
2017-11-05T11:42:25.898Z,1.55
2017-11-05T11:43:29.189Z,6.10
2017-11-05T11:44:31.720Z,5.80
2017-11-05T11:45:34.322Z,3.67
2017-11-05T11:46:36.847Z,2.10
2017-11-05T11:47:39.368Z,3.25
2017-11-05T11:48:41.893Z,2.50
2017-11-05T11:49:44.436Z,1.87
2017-11-05T11:50:46.982Z,1.87
2017-11-05T11:51:49.498Z,3.03
2017-11-05T11:52:52.778Z,3.40
2017-11-05T11:53:56.151Z,5.90
2017-11-05T11:54:59.448Z,1.90
2017-11-05T11:56:02.752Z,3.15
2017-11-05T11:57:05.269Z,2.20
2017-11-05T11:58:07.803Z,1.50
2017-11-05T11:59:10.359Z,2.10
2017-11-05T12:00:12.887Z,2.47
2017-11-05T12:01:15.405Z,1.70
2017-11-05T12:02:17.914Z,1.30
2017-11-05T12:03:20.429Z,1.52
2017-11-05T12:04:22.989Z,1.67
2017-11-05T12:05:25.515Z,1.20
2017-11-05T12:06:28.050Z,1.55
2017-11-05T12:07:30.622Z,1.52
2017-11-05T12:08:33.132Z,1.70
2017-11-05T12:09:36.474Z,2.58
2017-11-05T12:10:39.007Z,2.03
2017-11-05T12:11:41.527Z,1.23
2017-11-05T12:12:44.087Z,1.42
2017-11-05T12:13:46.626Z,2.00
2017-11-05T12:14:49.166Z,3.67
2017-11-05T12:15:51.685Z,1.55
2017-11-05T12:16:54.206Z,1.95
2017-11-05T12:17:56.797Z,1.75
2017-11-05T12:18:59.316Z,1.95
2017-11-05T12:20:01.862Z,2.42
2017-11-05T12:21:04.390Z,2.78
2017-11-05T12:22:06.910Z,4.60
2017-11-05T12:23:10.221Z,3.00
2017-11-05T12:24:12.758Z,2.40
2017-11-05T12:25:16.046Z,1.50
2017-11-05T12:26:19.443Z,1.42
2017-11-05T12:27:21.969Z,2.45
2017-11-05T12:28:24.529Z,3.55
2017-11-05T12:29:27.053Z,2.08
2017-11-05T12:30:29.616Z,8.32
2017-11-05T12:31:32.197Z,12.32
2017-11-05T12:32:34.725Z,9.27
2017-11-05T12:33:38.018Z,5.85
2017-11-05T12:34:41.489Z,41.95
2017-11-05T12:35:44.793Z,3.72
2017-11-05T12:36:47.358Z,3.10
2017-11-05T12:37:49.881Z,18.27
2017-11-05T12:38:52.394Z,3.85
2017-11-05T12:39:54.951Z,7.97
2017-11-05T12:40:57.483Z,5.60
2017-11-05T12:42:00.050Z,26.52
2017-11-05T12:43:02.574Z,13.15
2017-11-05T12:44:05.096Z,13.57
2017-11-05T12:45:07.614Z,4.55
2017-11-05T12:46:10.171Z,21.73
2017-11-05T12:47:12.732Z,12.13
2017-11-05T12:48:15.250Z,3.67
2017-11-05T12:49:17.770Z,2.47
2017-11-05T12:50:20.328Z,7.80
2017-11-05T12:51:22.845Z,8.52
2017-11-05T12:52:25.405Z,2.37
2017-11-05T12:53:27.936Z,1.70
2017-11-05T12:54:30.472Z,2.17
2017-11-05T12:55:33.802Z,2.03
2017-11-05T12:56:36.342Z,1.48
2017-11-05T12:57:38.853Z,2.00
2017-11-05T12:58:41.402Z,1.98
2017-11-05T12:59:43.925Z,3.28
2017-11-05T13:00:47.257Z,1.70
2017-11-05T13:01:49.878Z,1.60
2017-11-05T13:02:52.441Z,1.30
2017-11-05T13:03:54.970Z,1.60
2017-11-05T13:04:57.498Z,1.85
2017-11-05T13:06:00.055Z,1.40
2017-11-05T13:07:02.599Z,1.62
2017-11-05T13:08:05.883Z,1.73
2017-11-05T13:09:09.178Z,1.65
2017-11-05T13:10:11.739Z,1.12
2017-11-05T13:11:15.030Z,1.60
2017-11-05T13:12:17.544Z,1.45
2017-11-05T13:13:20.064Z,1.60
2017-11-05T13:14:22.581Z,1.35
2017-11-05T13:15:26.434Z,1.40
2017-11-05T13:16:28.949Z,1.80
2017-11-05T13:17:31.461Z,1.55
2017-11-05T13:18:33.980Z,1.35
2017-11-05T13:19:36.497Z,1.45
2017-11-05T13:20:39.117Z,1.75
2017-11-05T13:21:41.641Z,1.55
2017-11-05T13:22:44.281Z,1.55
2017-11-05T13:23:47.570Z,1.50
2017-11-05T13:24:50.103Z,1.40
2017-11-05T13:25:52.664Z,1.35
2017-11-05T13:26:55.195Z,1.75
2017-11-05T13:27:57.719Z,1.70
2017-11-05T13:29:01.003Z,1.83
2017-11-05T13:30:04.315Z,1.95
2017-11-05T13:31:06.914Z,1.75
2017-11-05T13:32:09.483Z,1.83
2017-11-05T13:33:11.997Z,1.90